createdAt,value
2022-11-04T00:02:03.129Z,12.89
2022-11-04T00:04:29.846Z,12.87
2022-11-04T00:06:57.235Z,12.76
2022-11-04T00:09:27.212Z,12.86
2022-11-04T00:12:12.747Z,12.76
2022-11-04T00:14:39.209Z,12.80
2022-11-04T00:17:24.324Z,12.80
2022-11-04T00:20:13.421Z,12.78
2022-11-04T00:23:00.687Z,12.77
2022-11-04T00:25:48.045Z,12.75
2022-11-04T00:28:35.637Z,12.75
2022-11-04T00:31:22.700Z,12.67
2022-11-04T00:33:51.560Z,12.62
2022-11-04T00:36:18.055Z,12.65
2022-11-04T00:38:44.501Z,12.69
2022-11-04T00:41:30.291Z,12.66
2022-11-04T00:43:58.451Z,12.66
2022-11-04T00:46:25.880Z,12.61
2022-11-04T00:48:52.410Z,12.60
2022-11-04T00:51:19.685Z,12.55
2022-11-04T00:53:46.304Z,12.52
2022-11-04T00:56:12.730Z,12.56
2022-11-04T00:58:39.210Z,12.61
2022-11-04T01:01:17.613Z,12.65
2022-11-04T01:03:45.796Z,12.61
2022-11-04T01:06:12.460Z,12.56
2022-11-04T01:08:39.286Z,12.71
2022-11-04T01:11:08.049Z,12.72
2022-11-04T01:13:34.923Z,12.76
2022-11-04T01:16:02.864Z,12.79
2022-11-04T01:18:29.376Z,12.77
2022-11-04T01:21:01.468Z,12.84
2022-11-04T01:23:28.438Z,12.82
2022-11-04T01:25:54.822Z,12.85
2022-11-04T01:28:21.202Z,12.90
2022-11-04T01:30:47.764Z,12.85
2022-11-04T01:33:14.317Z,12.87
2022-11-04T01:35:40.708Z,12.93
2022-11-04T01:38:07.272Z,12.95
2022-11-04T01:40:38.543Z,13.02
2022-11-04T01:43:15.169Z,13.00
2022-11-04T01:45:45.262Z,13.03
2022-11-04T01:48:22.207Z,13.08
2022-11-04T01:50:51.020Z,13.09
2022-11-04T01:53:26.781Z,13.11
2022-11-04T01:55:56.937Z,13.09
2022-11-04T01:58:26.321Z,13.13
2022-11-04T02:00:52.816Z,13.14
2022-11-04T02:03:24.409Z,13.16
2022-11-04T02:05:51.123Z,13.13
2022-11-04T02:08:18.281Z,13.18
2022-11-04T02:10:50.978Z,13.15
2022-11-04T02:13:18.152Z,13.21
2022-11-04T02:16:28.573Z,13.26
2022-11-04T02:18:55.264Z,13.36
2022-11-04T02:21:36.940Z,13.29
2022-11-04T02:24:28.239Z,13.30
2022-11-04T02:27:32.448Z,13.30
2022-11-04T02:30:10.101Z,13.32
2022-11-04T02:32:52.149Z,13.32
2022-11-04T02:35:37.299Z,13.32
2022-11-04T02:38:34.116Z,13.33
2022-11-04T02:41:09.673Z,13.29
2022-11-04T02:43:46.763Z,13.28
2022-11-04T02:46:36.385Z,13.30
2022-11-04T02:49:10.823Z,13.28
2022-11-04T02:51:44.855Z,13.26
2022-11-04T02:54:18.053Z,13.23
2022-11-04T02:56:49.936Z,13.25
2022-11-04T02:59:58.177Z,13.28
2022-11-04T03:02:33.436Z,13.18
2022-11-04T03:05:01.848Z,13.10
2022-11-04T03:07:34.064Z,13.19
2022-11-04T03:10:07.091Z,13.17
2022-11-04T03:12:42.441Z,13.17
2022-11-04T03:15:15.381Z,13.15
2022-11-04T03:17:54.687Z,13.11
2022-11-04T03:20:25.272Z,13.14
2022-11-04T03:22:55.700Z,13.06
2022-11-04T03:25:27.874Z,13.13
2022-11-04T03:28:05.893Z,13.13
2022-11-04T03:30:55.730Z,13.14
2022-11-04T03:33:33.209Z,13.16
2022-11-04T03:35:59.828Z,13.06
2022-11-04T03:38:26.192Z,13.13
2022-11-04T03:40:52.613Z,13.13
2022-11-04T03:43:25.944Z,13.20
2022-11-04T03:45:53.782Z,13.19
2022-11-04T03:48:20.678Z,13.18
2022-11-04T03:50:48.760Z,13.21
2022-11-04T03:56:06.418Z,13.28
2022-11-04T03:58:37.783Z,13.29
2022-11-04T04:01:41.614Z,13.32
2022-11-04T04:04:20.671Z,13.31
2022-11-04T04:06:53.517Z,13.32
2022-11-04T04:09:29.078Z,13.30
2022-11-04T04:12:02.934Z,13.38
2022-11-04T04:14:44.713Z,13.36
2022-11-04T04:17:36.337Z,13.44
2022-11-04T04:20:31.675Z,13.44
2022-11-04T04:23:03.151Z,13.46
2022-11-04T04:26:05.050Z,13.45
2022-11-04T04:28:31.475Z,13.50
2022-11-04T04:31:00.190Z,13.46
2022-11-04T04:33:26.961Z,13.50
2022-11-04T04:35:56.845Z,13.55
2022-11-04T04:38:46.967Z,13.60
2022-11-04T04:41:39.230Z,13.62
2022-11-04T04:44:33.603Z,13.65
2022-11-04T04:47:02.543Z,13.61
2022-11-04T04:49:34.990Z,13.64
2022-11-04T04:52:04.336Z,13.70
2022-11-04T04:54:30.758Z,13.72
2022-11-04T04:56:57.129Z,13.73
2022-11-04T04:59:23.514Z,13.68
2022-11-04T05:01:50.114Z,13.77
2022-11-04T05:04:16.711Z,13.67
2022-11-04T05:06:43.188Z,13.84
2022-11-04T05:09:09.704Z,13.76
2022-11-04T05:11:36.109Z,13.80
2022-11-04T05:14:02.602Z,13.79
2022-11-04T05:16:29.221Z,13.79
2022-11-04T05:18:55.686Z,13.85
2022-11-04T05:21:22.104Z,13.84
2022-11-04T05:23:48.477Z,13.89
2022-11-04T05:26:15.206Z,13.88
2022-11-04T05:28:41.588Z,13.87
2022-11-04T05:31:07.981Z,13.82
2022-11-04T05:33:34.372Z,13.83
2022-11-04T05:36:14.622Z,13.87
2022-11-04T05:38:41.567Z,13.94
2022-11-04T05:41:11.545Z,13.86
2022-11-04T05:43:38.089Z,13.87
2022-11-04T05:46:04.829Z,13.85
2022-11-04T05:48:34.049Z,13.87
2022-11-04T05:51:02.955Z,13.84
2022-11-04T05:53:29.417Z,13.84
2022-11-04T05:55:55.969Z,13.80
2022-11-04T05:58:22.421Z,13.76
2022-11-04T06:00:48.941Z,13.85
2022-11-04T06:03:16.439Z,13.82
2022-11-04T06:05:43.275Z,13.83
2022-11-04T06:08:10.109Z,13.74
2022-11-04T06:10:36.752Z,13.73
2022-11-04T06:13:03.185Z,13.77
2022-11-04T06:15:29.619Z,13.71
2022-11-04T06:17:56.114Z,13.81
2022-11-04T06:20:22.504Z,13.84
2022-11-04T06:22:49.010Z,13.72
2022-11-04T06:25:15.516Z,13.79
2022-11-04T06:27:42.089Z,13.76
2022-11-04T06:30:09.186Z,13.70
2022-11-04T06:32:35.614Z,13.77
2022-11-04T06:35:02.037Z,13.69
2022-11-04T06:37:28.519Z,13.68
2022-11-04T06:39:54.870Z,13.64
2022-11-04T06:42:21.256Z,13.60
2022-11-04T06:44:47.662Z,13.55
2022-11-04T06:47:14.077Z,13.51
2022-11-04T06:49:40.442Z,13.35
2022-11-04T06:52:06.810Z,13.29
2022-11-04T06:54:33.475Z,13.23
2022-11-04T06:56:59.918Z,13.17
2022-11-04T06:59:26.350Z,13.20
2022-11-04T07:01:52.883Z,13.07
2022-11-04T07:04:19.452Z,13.13
2022-11-04T07:06:46.158Z,13.02
2022-11-04T07:09:14.378Z,13.02
2022-11-04T07:11:41.851Z,12.97
2022-11-04T07:14:09.176Z,12.99
2022-11-04T07:16:35.821Z,12.92
2022-11-04T07:19:02.797Z,12.95
2022-11-04T07:21:29.294Z,12.88
2022-11-04T07:23:55.741Z,12.83
2022-11-04T07:26:22.274Z,12.83
2022-11-04T07:28:48.924Z,12.83
2022-11-04T07:31:15.730Z,12.72
2022-11-04T07:33:42.337Z,12.85
2022-11-04T07:36:12.720Z,12.87
2022-11-04T07:38:39.111Z,12.81
2022-11-04T07:41:05.694Z,12.81
2022-11-04T07:43:32.472Z,12.86
2022-11-04T07:46:04.285Z,12.84
2022-11-04T07:48:30.753Z,12.79
2022-11-04T07:50:59.603Z,12.77
2022-11-04T07:53:27.765Z,12.73
2022-11-04T07:55:54.187Z,12.79
2022-11-04T07:58:21.750Z,12.84
2022-11-04T08:00:48.549Z,12.87
2022-11-04T08:03:15.765Z,12.83
2022-11-04T08:05:42.166Z,12.92
2022-11-04T08:08:08.577Z,12.99
2022-11-04T08:10:35.857Z,13.03
2022-11-04T08:13:02.466Z,13.06
2022-11-04T08:15:29.458Z,13.16
2022-11-04T08:17:55.922Z,13.14
2022-11-04T08:20:22.389Z,13.15
2022-11-04T08:22:48.745Z,13.28
2022-11-04T08:25:15.185Z,13.27
2022-11-04T08:27:41.626Z,13.30
2022-11-04T08:30:08.874Z,13.34
2022-11-04T08:32:35.385Z,13.31
2022-11-04T08:35:01.788Z,13.31
2022-11-04T08:37:28.411Z,13.43
2022-11-04T08:39:54.778Z,13.43
2022-11-04T08:42:21.130Z,13.36
2022-11-04T08:44:51.387Z,13.39
2022-11-04T08:47:18.044Z,13.59
2022-11-04T08:49:44.560Z,13.53
2022-11-04T08:52:10.926Z,13.58
2022-11-04T08:54:37.308Z,13.64
2022-11-04T08:57:03.731Z,13.64
2022-11-04T08:59:30.158Z,13.71
2022-11-04T09:01:56.652Z,13.65
2022-11-04T09:04:23.835Z,13.70
2022-11-04T09:06:52.143Z,13.69
2022-11-04T09:09:19.255Z,13.63
2022-11-04T09:11:46.877Z,13.66
2022-11-04T09:14:13.440Z,13.64
2022-11-04T09:16:41.831Z,13.76
2022-11-04T09:19:08.849Z,13.83
2022-11-04T09:21:38.200Z,13.78
2022-11-04T09:24:06.096Z,13.88
2022-11-04T09:26:32.463Z,13.92
2022-11-04T09:28:59.314Z,13.98
2022-11-04T09:31:27.746Z,13.98
2022-11-04T09:33:55.550Z,13.94
2022-11-04T09:36:22.647Z,13.99
2022-11-04T09:38:49.688Z,13.91
2022-11-04T09:41:31.248Z,14.00
2022-11-04T09:44:48.182Z,13.96
2022-11-04T09:47:22.363Z,13.94
2022-11-04T09:49:53.732Z,13.99
2022-11-04T09:52:31.329Z,13.98
2022-11-04T09:55:07.284Z,14.05
2022-11-04T09:57:33.731Z,14.05
2022-11-04T10:00:00.590Z,14.10
2022-11-04T10:02:39.178Z,14.20
2022-11-04T10:05:23.902Z,14.28
2022-11-04T10:08:19.884Z,14.49
2022-11-04T10:11:21.393Z,14.51
2022-11-04T10:14:31.419Z,14.85
2022-11-04T10:17:26.367Z,15.02
2022-11-04T10:20:14.256Z,15.20
2022-11-04T10:22:52.728Z,15.49
2022-11-04T10:25:25.315Z,15.59
2022-11-04T10:27:52.414Z,15.82
2022-11-04T10:30:24.135Z,15.91
2022-11-04T10:33:12.603Z,16.16
2022-11-04T10:35:48.293Z,16.25
2022-11-04T10:38:33.168Z,16.33
2022-11-04T10:41:04.496Z,16.26
2022-11-04T10:43:37.514Z,16.39
2022-11-04T10:46:38.807Z,16.46
2022-11-04T10:49:15.687Z,16.51
2022-11-04T10:51:42.212Z,16.51
2022-11-04T10:54:10.226Z,16.66
2022-11-04T10:56:45.648Z,16.68
2022-11-04T10:59:27.526Z,16.73
2022-11-04T11:01:56.407Z,16.66
2022-11-04T11:04:25.724Z,16.78
2022-11-04T11:06:54.056Z,16.73
2022-11-04T11:09:30.103Z,16.81
2022-11-04T11:12:29.503Z,16.83
2022-11-04T11:14:53.251Z,16.87
2022-11-04T11:17:21.268Z,16.86
2022-11-04T11:19:54.858Z,17.08
2022-11-04T11:22:54.867Z,17.29
2022-11-04T11:25:21.412Z,17.55
2022-11-04T11:27:50.839Z,17.49
2022-11-04T11:30:26.142Z,17.61
2022-11-04T11:33:00.154Z,17.66
2022-11-04T11:35:31.913Z,17.72
2022-11-04T11:38:00.292Z,17.72
2022-11-04T11:40:35.669Z,17.88
2022-11-04T11:43:02.460Z,17.93
2022-11-04T11:45:30.022Z,17.98
2022-11-04T11:47:56.488Z,17.94
2022-11-04T11:50:34.381Z,17.91
2022-11-04T11:53:14.161Z,17.76
2022-11-04T11:55:47.882Z,17.62
2022-11-04T12:01:33.986Z,17.21
2022-11-04T12:10:04.781Z,17.07
2022-11-04T12:12:44.527Z,17.04
2022-11-04T12:15:29.791Z,17.06
2022-11-04T12:18:41.328Z,17.05
2022-11-04T12:21:16.881Z,16.95
2022-11-04T12:24:08.334Z,16.87
2022-11-04T12:26:56.218Z,16.84
2022-11-04T12:29:49.975Z,16.79
2022-11-04T12:32:35.132Z,16.76
2022-11-04T12:35:38.316Z,16.69
2022-11-04T12:38:11.453Z,16.62
2022-11-04T12:41:41.872Z,16.62
2022-11-04T12:43:55.764Z,16.57
2022-11-04T12:46:58.812Z,16.65
2022-11-04T12:49:45.845Z,16.73
2022-11-04T12:52:48.740Z,16.85
2022-11-04T12:55:18.249Z,16.87
2022-11-04T12:58:12.091Z,16.89
2022-11-04T13:00:41.454Z,16.87
2022-11-04T13:03:14.961Z,16.86
2022-11-04T13:06:08.854Z,16.85
2022-11-04T13:08:58.996Z,16.81
2022-11-04T13:11:31.180Z,16.73
2022-11-04T13:14:22.798Z,16.72
2022-11-04T13:16:51.712Z,16.67
2022-11-04T13:19:31.502Z,16.63
2022-11-04T13:22:03.667Z,16.65
2022-11-04T13:24:33.078Z,16.58
2022-11-04T13:27:03.370Z,16.61
2022-11-04T13:29:30.368Z,16.77
2022-11-04T13:32:17.772Z,16.64
2022-11-04T13:35:04.214Z,16.64
2022-11-04T13:37:37.150Z,16.54
2022-11-04T13:40:17.921Z,16.62
2022-11-04T13:43:16.203Z,16.61
2022-11-04T13:45:51.199Z,16.56
2022-11-04T13:48:22.016Z,16.36
2022-11-04T13:51:05.656Z,16.44
2022-11-04T13:53:49.449Z,16.36
2022-11-04T13:56:34.828Z,16.29
2022-11-04T13:59:19.129Z,16.20
2022-11-04T14:01:46.089Z,16.08
2022-11-04T14:04:12.495Z,16.04
2022-11-04T14:06:59.476Z,16.01
2022-11-04T14:09:46.829Z,15.95
2022-11-04T14:12:19.992Z,15.82
2022-11-04T14:14:49.935Z,15.74
2022-11-04T14:17:34.744Z,15.77
2022-11-04T14:20:11.728Z,15.67
2022-11-04T14:22:44.166Z,15.65
2022-11-04T14:25:29.513Z,15.61
2022-11-04T14:27:59.103Z,15.58
2022-11-04T14:30:30.239Z,15.48
2022-11-04T14:33:01.237Z,15.35
2022-11-04T14:35:29.307Z,15.32
2022-11-04T14:37:56.256Z,15.26
2022-11-04T14:40:27.338Z,15.01
2022-11-04T14:42:56.095Z,14.96
2022-11-04T14:45:25.534Z,14.85
2022-11-04T14:47:56.536Z,14.85
2022-11-04T14:50:28.285Z,14.82
2022-11-04T14:53:01.603Z,14.79
2022-11-04T14:55:30.181Z,14.72
2022-11-04T14:58:00.726Z,14.72
2022-11-04T15:00:27.448Z,14.68
2022-11-04T15:04:09.478Z,14.70
2022-11-04T15:06:12.047Z,14.61
2022-11-04T15:08:43.986Z,14.55
2022-11-04T15:11:15.726Z,14.50
2022-11-04T15:13:50.243Z,14.48
2022-11-04T15:16:20.139Z,14.43
2022-11-04T15:18:47.352Z,14.36
2022-11-04T15:21:15.311Z,14.35
2022-11-04T15:23:52.827Z,14.33
2022-11-04T15:26:30.419Z,14.27
2022-11-04T15:29:00.486Z,14.17
2022-11-04T15:31:32.491Z,14.17
2022-11-04T15:34:01.955Z,14.10
2022-11-04T15:36:31.077Z,14.05
2022-11-04T15:39:05.342Z,13.98
2022-11-04T15:41:52.998Z,13.94
2022-11-04T15:44:28.373Z,13.98
2022-11-04T15:47:01.175Z,13.97
2022-11-04T15:49:30.081Z,13.98
2022-11-04T15:52:05.073Z,13.96
2022-11-04T15:54:37.672Z,13.94
2022-11-04T15:57:31.652Z,13.91
2022-11-04T16:00:01.900Z,13.89
2022-11-04T16:02:29.571Z,14.04
2022-11-04T16:05:08.577Z,13.94
2022-11-04T16:07:43.693Z,13.88
2022-11-04T16:10:25.041Z,13.88
2022-11-04T16:13:14.774Z,13.87
2022-11-04T16:15:59.415Z,13.86
2022-11-04T16:18:42.785Z,13.77
2022-11-04T16:21:13.015Z,13.79
2022-11-04T16:23:44.457Z,13.92
2022-11-04T16:26:11.351Z,13.75
2022-11-04T16:28:43.020Z,13.64
2022-11-04T16:31:21.389Z,13.62
2022-11-04T16:33:49.014Z,13.48
2022-11-04T16:36:26.828Z,13.37
2022-11-04T16:39:03.691Z,13.31
2022-11-04T16:41:35.620Z,13.23
2022-11-04T16:44:03.769Z,13.11
2022-11-04T16:46:32.364Z,13.01
2022-11-04T16:48:58.897Z,12.93
2022-11-04T16:51:26.490Z,12.82
2022-11-04T16:53:54.647Z,12.71
2022-11-04T16:56:23.417Z,12.61
2022-11-04T16:58:50.596Z,12.44
2022-11-04T17:01:18.396Z,12.41
2022-11-04T17:03:45.246Z,12.21
2022-11-04T17:06:14.130Z,12.13
2022-11-04T17:08:42.097Z,12.05
2022-11-04T17:11:09.852Z,12.07
2022-11-04T17:13:37.192Z,12.02
2022-11-04T17:16:07.587Z,11.94
2022-11-04T17:18:34.918Z,11.95
2022-11-04T17:21:06.781Z,11.83
2022-11-04T17:23:33.820Z,11.90
2022-11-04T17:26:00.333Z,11.88
2022-11-04T17:28:31.506Z,11.82
2022-11-04T17:30:57.995Z,11.74
2022-11-04T17:33:24.539Z,11.72
2022-11-04T17:35:51.454Z,11.60
2022-11-04T17:38:18.625Z,11.74
2022-11-04T17:41:04.357Z,11.75
2022-11-04T17:43:49.694Z,11.72
2022-11-04T17:46:35.017Z,11.68
2022-11-04T17:49:03.558Z,11.71
2022-11-04T17:51:30.513Z,11.71
2022-11-04T17:53:56.881Z,11.74
2022-11-04T17:56:24.011Z,11.64
2022-11-04T17:58:51.160Z,11.79
2022-11-04T18:01:20.701Z,11.83
2022-11-04T18:03:47.462Z,11.84
2022-11-04T18:06:13.945Z,11.90
2022-11-04T18:08:40.438Z,11.85
2022-11-04T18:11:10.258Z,11.91
2022-11-04T18:13:37.300Z,11.97
2022-11-04T18:16:16.834Z,11.97
2022-11-04T18:18:43.632Z,11.95
2022-11-04T18:21:10.768Z,12.02
2022-11-04T18:23:37.213Z,11.94
2022-11-04T18:26:09.041Z,12.02
2022-11-04T18:28:38.112Z,11.91
2022-11-04T18:31:09.205Z,11.97
2022-11-04T18:33:36.296Z,11.90
2022-11-04T18:36:04.731Z,11.81
2022-11-04T18:38:31.682Z,11.76
2022-11-04T18:40:58.533Z,11.70
2022-11-04T18:43:24.948Z,11.62
2022-11-04T18:45:53.414Z,11.47
2022-11-04T18:48:22.946Z,11.38
2022-11-04T18:50:49.551Z,11.40
2022-11-04T18:53:16.507Z,11.35
2022-11-04T18:55:42.962Z,11.18
2022-11-04T18:58:09.593Z,11.09
2022-11-04T19:00:38.250Z,11.07
2022-11-04T19:03:04.631Z,10.98
2022-11-04T19:05:31.398Z,10.99
2022-11-04T19:07:57.831Z,10.94
2022-11-04T19:10:24.178Z,10.87
2022-11-04T19:13:08.908Z,10.83
2022-11-04T19:15:35.761Z,10.79
2022-11-04T19:18:02.130Z,10.84
2022-11-04T19:20:28.740Z,10.77
2022-11-04T19:22:55.094Z,10.84
2022-11-04T19:25:21.512Z,10.76
2022-11-04T19:28:05.217Z,10.76
2022-11-04T19:30:35.356Z,10.80
2022-11-04T19:33:02.107Z,10.75
2022-11-04T19:35:28.986Z,10.78
2022-11-04T19:37:55.939Z,10.78
2022-11-04T19:40:22.377Z,10.77
2022-11-04T19:43:07.487Z,10.71
2022-11-04T19:45:33.860Z,10.75
2022-11-04T19:48:00.266Z,10.70
2022-11-04T19:50:26.644Z,10.60
2022-11-04T19:52:55.479Z,10.65
2022-11-04T19:55:21.977Z,10.55
2022-11-04T19:57:48.426Z,10.60
2022-11-04T20:00:15.116Z,10.53
2022-11-04T20:02:41.593Z,10.66
2022-11-04T20:05:08.276Z,10.59
2022-11-04T20:07:34.629Z,10.68
2022-11-04T20:10:01.245Z,10.68
2022-11-04T20:12:46.207Z,10.63
2022-11-04T20:15:12.634Z,10.64
2022-11-04T20:17:38.984Z,10.60
2022-11-04T20:20:05.785Z,10.58
2022-11-04T20:22:32.190Z,10.60
2022-11-04T20:24:58.832Z,10.56
2022-11-04T20:27:25.377Z,10.47
2022-11-04T20:29:51.849Z,10.54
2022-11-04T20:32:18.587Z,10.44
2022-11-04T20:34:45.226Z,10.47
2022-11-04T20:37:12.725Z,10.43
2022-11-04T20:39:39.170Z,10.38
2022-11-04T20:42:05.642Z,10.33
2022-11-04T20:44:32.579Z,10.29
2022-11-04T20:46:59.576Z,10.29
2022-11-04T20:49:25.984Z,10.17
2022-11-04T20:51:55.380Z,10.14
2022-11-04T20:54:22.295Z,10.08
2022-11-04T20:56:48.673Z,10.12
2022-11-04T20:59:20.823Z,10.05
2022-11-04T21:01:48.723Z,9.99
2022-11-04T21:04:18.785Z,9.90
2022-11-04T21:06:46.989Z,9.88
2022-11-04T21:09:15.340Z,9.91
2022-11-04T21:11:41.943Z,9.84
2022-11-04T21:14:12.538Z,9.80
2022-11-04T21:16:39.597Z,9.66
2022-11-04T21:19:07.896Z,9.67
2022-11-04T21:21:35.098Z,9.62
2022-11-04T21:24:06.223Z,9.58
2022-11-04T21:26:34.868Z,9.64
2022-11-04T21:29:04.384Z,9.58
2022-11-04T21:31:32.364Z,9.53
2022-11-04T21:33:59.360Z,9.56
2022-11-04T21:36:26.562Z,9.55
2022-11-04T21:38:52.961Z,9.48
2022-11-04T21:41:23.095Z,9.50
2022-11-04T21:43:53.887Z,9.46
2022-11-04T21:46:20.265Z,9.43
2022-11-04T21:48:46.825Z,9.35
2022-11-04T21:51:16.505Z,9.34
2022-11-04T21:53:43.352Z,9.34
2022-11-04T21:56:15.009Z,9.28
2022-11-04T21:58:43.316Z,9.23
2022-11-04T22:01:12.445Z,9.25
2022-11-04T22:03:38.987Z,9.21
2022-11-04T22:06:08.379Z,9.18
2022-11-04T22:08:35.821Z,9.15
2022-11-04T22:11:11.631Z,9.14
2022-11-04T22:13:38.193Z,9.06
2022-11-04T22:16:14.784Z,9.11
2022-11-04T22:18:42.042Z,9.09
2022-11-04T22:21:11.780Z,9.07
2022-11-04T22:23:38.195Z,9.07
2022-11-04T22:26:08.215Z,9.03
2022-11-04T22:28:34.588Z,8.98
2022-11-04T22:31:06.536Z,9.03
2022-11-04T22:33:33.244Z,8.96
2022-11-04T22:35:59.724Z,8.92
2022-11-04T22:38:26.137Z,8.93
2022-11-04T22:40:58.241Z,8.94
2022-11-04T22:43:25.768Z,8.89
2022-11-04T22:45:53.695Z,8.87
2022-11-04T22:48:20.476Z,8.85
2022-11-04T22:50:53.424Z,8.74
2022-11-04T22:53:19.929Z,8.79
2022-11-04T22:55:46.275Z,8.76
2022-11-04T22:58:12.827Z,8.70
2022-11-04T23:00:39.184Z,8.62
2022-11-04T23:03:05.874Z,8.66
2022-11-04T23:05:33.235Z,8.70
2022-11-04T23:08:00.594Z,8.65
2022-11-04T23:10:49.466Z,8.69
2022-11-04T23:13:34.797Z,8.57
2022-11-04T23:16:20.437Z,8.64
2022-11-04T23:18:50.913Z,8.60
2022-11-04T23:21:40.617Z,8.42
2022-11-04T23:24:25.886Z,8.45
2022-11-04T23:26:52.282Z,8.41
2022-11-04T23:29:37.364Z,8.46
2022-11-04T23:32:03.956Z,8.40
2022-11-04T23:34:49.061Z,8.42
2022-11-04T23:37:15.909Z,8.34
2022-11-04T23:39:47.894Z,8.34
2022-11-04T23:42:22.772Z,8.33
2022-11-04T23:45:08.829Z,8.34
2022-11-04T23:48:04.862Z,8.31
2022-11-04T23:50:52.345Z,8.27
2022-11-04T23:53:39.305Z,8.30
2022-11-04T23:56:28.082Z,8.30
2022-11-04T23:59:12.973Z,8.23
